CheckWX is a tool to help pilots better visualize weather data.  It is not intended as a substitute for an official pre-flight weather briefing.

00:43:37 UTC

FNGI TAF
Ngjiva Pereira Airport
Ngiva, Angola
TAF FNGI 252230Z 2600/2612 14010KT 9999 SCT016

Mar-26@
00:00 UTC

Mar-26 @ 00:00 UTC

Mar-26@
12:00 UTC

Mar-26 @ 12:00 UTC

TAF FNGI 252230Z 2600/2612 14010KT 9999 SCT016
Wind
  • 140° at 10 KTS
Cloud Levels
  • Scattered at 1,600' AGL